sensor_id;sensor_type;location;lat;lon;timestamp;temperature;humidity
42333;DHT22;27984;51.476;5.702;2023-05-19T00:02:14;9.40;99.90
42333;DHT22;27984;51.476;5.702;2023-05-19T00:04:40;9.40;99.90
42333;DHT22;27984;51.476;5.702;2023-05-19T00:07:08;9.30;99.90
42333;DHT22;27984;51.476;5.702;2023-05-19T00:09:35;9.30;99.90
42333;DHT22;27984;51.476;5.702;2023-05-19T00:12:00;9.30;99.90
42333;DHT22;27984;51.476;5.702;2023-05-19T00:14:26;9.20;99.90
42333;DHT22;27984;51.476;5.702;2023-05-19T00:16:53;9.20;99.90
42333;DHT22;27984;51.476;5.702;2023-05-19T00:19:20;9.10;99.90
42333;DHT22;27984;51.476;5.702;2023-05-19T00:21:46;9.10;99.90
42333;DHT22;27984;51.476;5.702;2023-05-19T00:24:11;9.10;99.90
42333;DHT22;27984;51.476;5.702;2023-05-19T00:26:37;9.10;99.90
42333;DHT22;27984;51.476;5.702;2023-05-19T00:29:03;9.10;99.90
42333;DHT22;27984;51.476;5.702;2023-05-19T00:31:28;9.10;99.90
42333;DHT22;27984;51.476;5.702;2023-05-19T00:33:55;9.10;99.90
42333;DHT22;27984;51.476;5.702;2023-05-19T00:36:21;9.00;99.90
42333;DHT22;27984;51.476;5.702;2023-05-19T00:38:47;9.10;99.90
42333;DHT22;27984;51.476;5.702;2023-05-19T00:41:12;9.10;99.90
42333;DHT22;27984;51.476;5.702;2023-05-19T00:43:38;9.00;99.90
42333;DHT22;27984;51.476;5.702;2023-05-19T00:46:04;9.10;99.90
42333;DHT22;27984;51.476;5.702;2023-05-19T00:48:29;9.00;99.90
42333;DHT22;27984;51.476;5.702;2023-05-19T00:50:56;9.00;99.90
42333;DHT22;27984;51.476;5.702;2023-05-19T00:53:26;9.00;99.90
42333;DHT22;27984;51.476;5.702;2023-05-19T00:55:52;9.00;99.90
42333;DHT22;27984;51.476;5.702;2023-05-19T00:58:18;9.00;99.90
42333;DHT22;27984;51.476;5.702;2023-05-19T01:00:44;9.00;99.90
42333;DHT22;27984;51.476;5.702;2023-05-19T01:03:10;9.00;99.90
42333;DHT22;27984;51.476;5.702;2023-05-19T01:05:40;8.90;99.90
42333;DHT22;27984;51.476;5.702;2023-05-19T01:08:06;9.00;99.90
42333;DHT22;27984;51.476;5.702;2023-05-19T01:10:32;9.00;99.90
42333;DHT22;27984;51.476;5.702;2023-05-19T01:12:57;8.90;99.90
42333;DHT22;27984;51.476;5.702;2023-05-19T01:15:26;8.90;99.90
42333;DHT22;27984;51.476;5.702;2023-05-19T01:17:59;8.80;99.90
42333;DHT22;27984;51.476;5.702;2023-05-19T01:20:34;8.80;99.90
42333;DHT22;27984;51.476;5.702;2023-05-19T01:23:27;8.80;99.90
42333;DHT22;27984;51.476;5.702;2023-05-19T01:31:29;8.80;99.90
42333;DHT22;27984;51.476;5.702;2023-05-19T01:33:56;8.80;99.90
42333;DHT22;27984;51.476;5.702;2023-05-19T01:36:22;8.70;99.90
42333;DHT22;27984;51.476;5.702;2023-05-19T01:38:51;8.70;99.90
42333;DHT22;27984;51.476;5.702;2023-05-19T01:41:19;8.70;99.90
42333;DHT22;27984;51.476;5.702;2023-05-19T01:43:47;8.60;99.90
42333;DHT22;27984;51.476;5.702;2023-05-19T01:46:13;8.60;99.90
42333;DHT22;27984;51.476;5.702;2023-05-19T01:48:39;8.60;99.90
42333;DHT22;27984;51.476;5.702;2023-05-19T01:51:05;8.60;99.90
42333;DHT22;27984;51.476;5.702;2023-05-19T01:53:30;8.50;99.90
42333;DHT22;27984;51.476;5.702;2023-05-19T01:55:56;8.50;99.90
42333;DHT22;27984;51.476;5.702;2023-05-19T01:58:30;8.50;99.90
42333;DHT22;27984;51.476;5.702;2023-05-19T02:07:07;8.50;99.90
42333;DHT22;27984;51.476;5.702;2023-05-19T02:09:37;8.40;99.90
42333;DHT22;27984;51.476;5.702;2023-05-19T02:12:19;8.40;99.90
42333;DHT22;27984;51.476;5.702;2023-05-19T02:15:16;8.40;99.90
42333;DHT22;27984;51.476;5.702;2023-05-19T02:17:44;8.30;99.90
42333;DHT22;27984;51.476;5.702;2023-05-19T02:20:15;8.30;99.90
42333;DHT22;27984;51.476;5.702;2023-05-19T02:22:41;8.30;99.90
42333;DHT22;27984;51.476;5.702;2023-05-19T02:25:07;8.30;99.90
42333;DHT22;27984;51.476;5.702;2023-05-19T02:27:37;8.30;99.90
42333;DHT22;27984;51.476;5.702;2023-05-19T02:30:04;8.30;99.90
42333;DHT22;27984;51.476;5.702;2023-05-19T02:32:31;8.30;99.90
42333;DHT22;27984;51.476;5.702;2023-05-19T02:34:56;8.20;99.90
42333;DHT22;27984;51.476;5.702;2023-05-19T02:37:22;8.20;99.90
42333;DHT22;27984;51.476;5.702;2023-05-19T02:39:49;8.10;99.90
42333;DHT22;27984;51.476;5.702;2023-05-19T02:42:14;8.10;99.90
42333;DHT22;27984;51.476;5.702;2023-05-19T02:44:42;8.10;99.90
42333;DHT22;27984;51.476;5.702;2023-05-19T02:47:07;8.10;99.90
42333;DHT22;27984;51.476;5.702;2023-05-19T02:49:33;8.10;99.90
42333;DHT22;27984;51.476;5.702;2023-05-19T02:52:02;8.00;99.90
42333;DHT22;27984;51.476;5.702;2023-05-19T02:54:29;8.00;99.90
42333;DHT22;27984;51.476;5.702;2023-05-19T02:56:55;7.90;99.90
42333;DHT22;27984;51.476;5.702;2023-05-19T02:59:20;7.90;99.90
42333;DHT22;27984;51.476;5.702;2023-05-19T03:01:46;8.00;99.90
42333;DHT22;27984;51.476;5.702;2023-05-19T03:04:12;8.00;99.90
42333;DHT22;27984;51.476;5.702;2023-05-19T03:06:38;7.90;99.90
42333;DHT22;27984;51.476;5.702;2023-05-19T03:09:04;7.90;99.90
42333;DHT22;27984;51.476;5.702;2023-05-19T03:11:30;8.00;99.90
42333;DHT22;27984;51.476;5.702;2023-05-19T03:13:56;7.90;99.90
42333;DHT22;27984;51.476;5.702;2023-05-19T03:16:21;7.90;99.90
42333;DHT22;27984;51.476;5.702;2023-05-19T03:18:47;7.90;99.90
42333;DHT22;27984;51.476;5.702;2023-05-19T03:21:12;7.90;99.90
42333;DHT22;27984;51.476;5.702;2023-05-19T03:23:38;7.90;99.90
42333;DHT22;27984;51.476;5.702;2023-05-19T03:26:03;7.90;99.90
42333;DHT22;27984;51.476;5.702;2023-05-19T03:28:29;7.80;99.90
42333;DHT22;27984;51.476;5.702;2023-05-19T03:30:55;7.80;99.90
42333;DHT22;27984;51.476;5.702;2023-05-19T03:33:20;7.90;99.90
42333;DHT22;27984;51.476;5.702;2023-05-19T03:35:46;7.90;99.90
42333;DHT22;27984;51.476;5.702;2023-05-19T03:38:11;7.80;99.90
42333;DHT22;27984;51.476;5.702;2023-05-19T03:40:37;7.80;99.90
42333;DHT22;27984;51.476;5.702;2023-05-19T03:43:03;7.80;99.90
42333;DHT22;27984;51.476;5.702;2023-05-19T03:45:28;7.80;99.90
42333;DHT22;27984;51.476;5.702;2023-05-19T03:47:54;7.80;99.90
42333;DHT22;27984;51.476;5.702;2023-05-19T03:50:19;7.80;99.90
42333;DHT22;27984;51.476;5.702;2023-05-19T03:52:46;7.80;99.90
42333;DHT22;27984;51.476;5.702;2023-05-19T03:55:12;7.80;99.90
42333;DHT22;27984;51.476;5.702;2023-05-19T03:57:41;7.90;99.90
42333;DHT22;27984;51.476;5.702;2023-05-19T04:00:09;7.80;99.90
42333;DHT22;27984;51.476;5.702;2023-05-19T04:02:38;7.80;99.90
42333;DHT22;27984;51.476;5.702;2023-05-19T04:05:04;7.80;99.90
42333;DHT22;27984;51.476;5.702;2023-05-19T04:07:30;7.80;99.90
42333;DHT22;27984;51.476;5.702;2023-05-19T04:09:56;7.80;99.90
42333;DHT22;27984;51.476;5.702;2023-05-19T04:12:21;7.80;99.90
42333;DHT22;27984;51.476;5.702;2023-05-19T04:14:47;7.80;99.90
42333;DHT22;27984;51.476;5.702;2023-05-19T04:17:12;7.80;99.90
42333;DHT22;27984;51.476;5.702;2023-05-19T04:19:38;7.80;99.90
42333;DHT22;27984;51.476;5.702;2023-05-19T04:22:04;7.80;99.90
42333;DHT22;27984;51.476;5.702;2023-05-19T04:24:30;7.80;99.90
42333;DHT22;27984;51.476;5.702;2023-05-19T04:26:55;7.80;99.90
42333;DHT22;27984;51.476;5.702;2023-05-19T04:29:21;7.80;99.90
42333;DHT22;27984;51.476;5.702;2023-05-19T04:31:48;7.80;99.90
42333;DHT22;27984;51.476;5.702;2023-05-19T04:34:14;7.90;99.90
42333;DHT22;27984;51.476;5.702;2023-05-19T04:36:39;7.90;99.90
42333;DHT22;27984;51.476;5.702;2023-05-19T04:39:05;7.90;99.90
42333;DHT22;27984;51.476;5.702;2023-05-19T04:41:33;7.90;99.90
42333;DHT22;27984;51.476;5.702;2023-05-19T04:43:59;7.90;99.90
42333;DHT22;27984;51.476;5.702;2023-05-19T04:46:25;7.90;99.90
42333;DHT22;27984;51.476;5.702;2023-05-19T04:48:51;8.00;99.90
42333;DHT22;27984;51.476;5.702;2023-05-19T04:51:18;8.00;99.90
42333;DHT22;27984;51.476;5.702;2023-05-19T04:53:44;8.10;99.90
42333;DHT22;27984;51.476;5.702;2023-05-19T04:56:10;8.10;99.90
42333;DHT22;27984;51.476;5.702;2023-05-19T04:58:39;8.10;99.90
42333;DHT22;27984;51.476;5.702;2023-05-19T05:01:05;8.20;99.90
42333;DHT22;27984;51.476;5.702;2023-05-19T05:03:31;8.30;99.90
42333;DHT22;27984;51.476;5.702;2023-05-19T05:05:58;8.30;99.90
42333;DHT22;27984;51.476;5.702;2023-05-19T05:08:24;8.40;99.90
42333;DHT22;27984;51.476;5.702;2023-05-19T05:10:50;8.40;99.90
42333;DHT22;27984;51.476;5.702;2023-05-19T05:13:21;8.50;99.90
42333;DHT22;27984;51.476;5.702;2023-05-19T05:15:47;8.60;99.90
42333;DHT22;27984;51.476;5.702;2023-05-19T05:18:14;8.70;99.90
42333;DHT22;27984;51.476;5.702;2023-05-19T05:20:44;8.80;99.90
42333;DHT22;27984;51.476;5.702;2023-05-19T05:23:11;8.90;99.90
42333;DHT22;27984;51.476;5.702;2023-05-19T05:25:42;9.10;99.90
42333;DHT22;27984;51.476;5.702;2023-05-19T05:28:08;9.20;99.90
42333;DHT22;27984;51.476;5.702;2023-05-19T05:30:34;9.50;99.90
42333;DHT22;27984;51.476;5.702;2023-05-19T05:33:00;9.80;99.90
42333;DHT22;27984;51.476;5.702;2023-05-19T05:35:27;10.20;99.90
42333;DHT22;27984;51.476;5.702;2023-05-19T05:37:52;10.60;99.90
42333;DHT22;27984;51.476;5.702;2023-05-19T05:40:18;11.00;99.90
42333;DHT22;27984;51.476;5.702;2023-05-19T05:42:44;11.30;99.90
42333;DHT22;27984;51.476;5.702;2023-05-19T05:45:10;11.50;99.90
42333;DHT22;27984;51.476;5.702;2023-05-19T05:47:35;11.90;99.90
42333;DHT22;27984;51.476;5.702;2023-05-19T05:50:03;12.20;99.90
42333;DHT22;27984;51.476;5.702;2023-05-19T05:52:30;12.60;99.90
42333;DHT22;27984;51.476;5.702;2023-05-19T05:54:56;13.10;99.90
42333;DHT22;27984;51.476;5.702;2023-05-19T05:57:22;13.40;99.90
42333;DHT22;27984;51.476;5.702;2023-05-19T05:59:48;13.70;99.90
42333;DHT22;27984;51.476;5.702;2023-05-19T06:02:15;13.70;99.90
42333;DHT22;27984;51.476;5.702;2023-05-19T06:04:41;13.80;99.90
42333;DHT22;27984;51.476;5.702;2023-05-19T06:07:07;13.70;99.90
42333;DHT22;27984;51.476;5.702;2023-05-19T06:09:32;13.40;99.90
42333;DHT22;27984;51.476;5.702;2023-05-19T06:11:58;12.80;99.90
42333;DHT22;27984;51.476;5.702;2023-05-19T06:14:24;12.40;99.90
42333;DHT22;27984;51.476;5.702;2023-05-19T06:16:50;12.30;99.90
42333;DHT22;27984;51.476;5.702;2023-05-19T06:19:16;12.20;99.90
42333;DHT22;27984;51.476;5.702;2023-05-19T06:21:42;12.40;99.90
42333;DHT22;27984;51.476;5.702;2023-05-19T06:24:08;12.60;99.90
42333;DHT22;27984;51.476;5.702;2023-05-19T06:26:33;12.70;99.90
42333;DHT22;27984;51.476;5.702;2023-05-19T06:28:59;13.10;99.90
42333;DHT22;27984;51.476;5.702;2023-05-19T06:31:24;13.80;99.90
42333;DHT22;27984;51.476;5.702;2023-05-19T06:33:51;14.60;99.90
42333;DHT22;27984;51.476;5.702;2023-05-19T06:36:18;15.40;99.90
42333;DHT22;27984;51.476;5.702;2023-05-19T06:38:43;16.20;99.90
42333;DHT22;27984;51.476;5.702;2023-05-19T06:41:09;16.60;98.80
42333;DHT22;27984;51.476;5.702;2023-05-19T06:43:34;16.70;99.20
42333;DHT22;27984;51.476;5.702;2023-05-19T06:46:00;16.70;97.70
42333;DHT22;27984;51.476;5.702;2023-05-19T06:48:25;16.70;97.80
42333;DHT22;27984;51.476;5.702;2023-05-19T06:50:51;17.30;98.20
42333;DHT22;27984;51.476;5.702;2023-05-19T06:53:18;17.40;96.40
42333;DHT22;27984;51.476;5.702;2023-05-19T06:55:44;17.20;96.30
42333;DHT22;27984;51.476;5.702;2023-05-19T06:58:10;17.10;97.20
42333;DHT22;27984;51.476;5.702;2023-05-19T07:00:36;17.40;96.70
42333;DHT22;27984;51.476;5.702;2023-05-19T07:03:01;17.70;96.40
42333;DHT22;27984;51.476;5.702;2023-05-19T07:05:27;17.90;96.00
42333;DHT22;27984;51.476;5.702;2023-05-19T07:07:53;18.10;96.30
42333;DHT22;27984;51.476;5.702;2023-05-19T07:10:18;18.50;94.70
42333;DHT22;27984;51.476;5.702;2023-05-19T07:12:45;18.90;94.30
42333;DHT22;27984;51.476;5.702;2023-05-19T07:15:11;19.20;93.20
42333;DHT22;27984;51.476;5.702;2023-05-19T07:17:36;19.00;93.20
42333;DHT22;27984;51.476;5.702;2023-05-19T07:20:02;19.50;93.10
42333;DHT22;27984;51.476;5.702;2023-05-19T07:22:31;19.50;92.20
42333;DHT22;27984;51.476;5.702;2023-05-19T07:24:59;20.50;92.10
42333;DHT22;27984;51.476;5.702;2023-05-19T07:27:25;20.80;90.50
42333;DHT22;27984;51.476;5.702;2023-05-19T07:29:50;20.90;90.50
42333;DHT22;27984;51.476;5.702;2023-05-19T07:32:16;21.10;89.90
42333;DHT22;27984;51.476;5.702;2023-05-19T07:34:41;21.60;90.60
42333;DHT22;27984;51.476;5.702;2023-05-19T07:37:07;21.20;87.70
42333;DHT22;27984;51.476;5.702;2023-05-19T07:39:34;20.30;90.00
42333;DHT22;27984;51.476;5.702;2023-05-19T07:42:00;19.30;90.40
42333;DHT22;27984;51.476;5.702;2023-05-19T07:44:26;19.10;91.40
42333;DHT22;27984;51.476;5.702;2023-05-19T07:46:53;19.90;90.80
42333;DHT22;27984;51.476;5.702;2023-05-19T07:49:18;20.50;90.30
42333;DHT22;27984;51.476;5.702;2023-05-19T07:51:44;21.00;88.90
42333;DHT22;27984;51.476;5.702;2023-05-19T07:54:10;21.60;89.10
42333;DHT22;27984;51.476;5.702;2023-05-19T07:56:36;21.80;87.10
42333;DHT22;27984;51.476;5.702;2023-05-19T07:59:02;22.30;87.20
42333;DHT22;27984;51.476;5.702;2023-05-19T08:01:29;23.00;84.90
42333;DHT22;27984;51.476;5.702;2023-05-19T08:03:54;22.80;82.60
42333;DHT22;27984;51.476;5.702;2023-05-19T08:06:20;22.80;82.00
42333;DHT22;27984;51.476;5.702;2023-05-19T08:08:46;22.90;83.50
42333;DHT22;27984;51.476;5.702;2023-05-19T08:11:12;23.30;82.70
42333;DHT22;27984;51.476;5.702;2023-05-19T08:13:38;23.90;81.10
42333;DHT22;27984;51.476;5.702;2023-05-19T08:16:03;24.60;82.00
42333;DHT22;27984;51.476;5.702;2023-05-19T08:18:29;24.60;78.40
42333;DHT22;27984;51.476;5.702;2023-05-19T08:20:54;24.80;76.60
42333;DHT22;27984;51.476;5.702;2023-05-19T08:23:21;24.50;76.00
42333;DHT22;27984;51.476;5.702;2023-05-19T08:25:46;24.30;75.70
42333;DHT22;27984;51.476;5.702;2023-05-19T08:28:12;24.60;75.40
42333;DHT22;27984;51.476;5.702;2023-05-19T08:30:37;24.80;75.20
42333;DHT22;27984;51.476;5.702;2023-05-19T08:33:03;25.00;75.00
42333;DHT22;27984;51.476;5.702;2023-05-19T08:35:29;25.30;74.30
42333;DHT22;27984;51.476;5.702;2023-05-19T08:37:54;25.30;70.90
42333;DHT22;27984;51.476;5.702;2023-05-19T08:40:20;25.00;70.90
42333;DHT22;27984;51.476;5.702;2023-05-19T08:42:46;25.10;71.20
42333;DHT22;27984;51.476;5.702;2023-05-19T08:45:12;25.50;71.60
42333;DHT22;27984;51.476;5.702;2023-05-19T08:47:40;26.20;66.60
42333;DHT22;27984;51.476;5.702;2023-05-19T08:50:06;26.10;66.20
42333;DHT22;27984;51.476;5.702;2023-05-19T08:52:43;25.80;62.60
42333;DHT22;27984;51.476;5.702;2023-05-19T08:55:32;24.80;64.00
42333;DHT22;27984;51.476;5.702;2023-05-19T08:58:02;25.00;64.90
42333;DHT22;27984;51.476;5.702;2023-05-19T09:00:29;25.70;61.50
42333;DHT22;27984;51.476;5.702;2023-05-19T09:02:55;25.40;60.60
42333;DHT22;27984;51.476;5.702;2023-05-19T09:05:21;26.10;62.10
42333;DHT22;27984;51.476;5.702;2023-05-19T09:07:47;26.10;60.10
42333;DHT22;27984;51.476;5.702;2023-05-19T09:10:13;26.20;58.20
42333;DHT22;27984;51.476;5.702;2023-05-19T09:12:42;26.10;57.70
42333;DHT22;27984;51.476;5.702;2023-05-19T09:15:09;26.20;57.80
42333;DHT22;27984;51.476;5.702;2023-05-19T09:17:36;25.80;58.00
42333;DHT22;27984;51.476;5.702;2023-05-19T09:20:02;26.30;57.90
42333;DHT22;27984;51.476;5.702;2023-05-19T09:22:30;26.60;56.60
42333;DHT22;27984;51.476;5.702;2023-05-19T09:24:56;26.40;54.90
42333;DHT22;27984;51.476;5.702;2023-05-19T09:27:21;27.00;53.70
42333;DHT22;27984;51.476;5.702;2023-05-19T09:29:49;26.20;54.30
42333;DHT22;27984;51.476;5.702;2023-05-19T09:32:24;26.20;53.70
42333;DHT22;27984;51.476;5.702;2023-05-19T09:34:52;26.00;54.50
42333;DHT22;27984;51.476;5.702;2023-05-19T09:37:22;26.10;53.40
42333;DHT22;27984;51.476;5.702;2023-05-19T09:39:48;26.30;52.00
42333;DHT22;27984;51.476;5.702;2023-05-19T09:42:23;26.40;52.80
42333;DHT22;27984;51.476;5.702;2023-05-19T09:44:52;25.80;53.90
42333;DHT22;27984;51.476;5.702;2023-05-19T09:47:23;25.60;53.00
42333;DHT22;27984;51.476;5.702;2023-05-19T09:49:49;25.60;53.60
42333;DHT22;27984;51.476;5.702;2023-05-19T09:52:16;26.10;55.60
42333;DHT22;27984;51.476;5.702;2023-05-19T09:54:43;26.50;55.10
42333;DHT22;27984;51.476;5.702;2023-05-19T09:57:09;26.40;53.60
42333;DHT22;27984;51.476;5.702;2023-05-19T09:59:34;26.30;53.30
42333;DHT22;27984;51.476;5.702;2023-05-19T10:02:01;26.60;52.40
42333;DHT22;27984;51.476;5.702;2023-05-19T10:04:28;26.60;52.50
42333;DHT22;27984;51.476;5.702;2023-05-19T10:06:55;26.70;51.70
42333;DHT22;27984;51.476;5.702;2023-05-19T10:09:26;26.90;51.00
42333;DHT22;27984;51.476;5.702;2023-05-19T10:11:53;26.40;52.00
42333;DHT22;27984;51.476;5.702;2023-05-19T10:14:26;26.50;52.10
42333;DHT22;27984;51.476;5.702;2023-05-19T10:16:53;27.20;52.20
42333;DHT22;27984;51.476;5.702;2023-05-19T10:19:27;27.00;50.60
42333;DHT22;27984;51.476;5.702;2023-05-19T10:21:54;26.80;51.00
42333;DHT22;27984;51.476;5.702;2023-05-19T10:24:20;26.80;50.80
42333;DHT22;27984;51.476;5.702;2023-05-19T10:26:56;27.20;51.20
42333;DHT22;27984;51.476;5.702;2023-05-19T10:29:29;27.60;52.20
42333;DHT22;27984;51.476;5.702;2023-05-19T10:31:58;27.60;49.70
42333;DHT22;27984;51.476;5.702;2023-05-19T10:39:53;27.60;49.00
42333;DHT22;27984;51.476;5.702;2023-05-19T10:42:34;27.10;50.10
42333;DHT22;27984;51.476;5.702;2023-05-19T10:45:17;27.20;49.90
42333;DHT22;27984;51.476;5.702;2023-05-19T10:47:44;27.30;49.40
42333;DHT22;27984;51.476;5.702;2023-05-19T10:50:10;27.10;48.70
42333;DHT22;27984;51.476;5.702;2023-05-19T10:52:37;27.70;49.20
42333;DHT22;27984;51.476;5.702;2023-05-19T10:55:03;28.10;48.40
42333;DHT22;27984;51.476;5.702;2023-05-19T10:57:32;27.40;48.90
42333;DHT22;27984;51.476;5.702;2023-05-19T11:00:02;26.30;49.60
42333;DHT22;27984;51.476;5.702;2023-05-19T11:05:09;27.10;50.00
42333;DHT22;27984;51.476;5.702;2023-05-19T11:07:35;27.10;49.40
42333;DHT22;27984;51.476;5.702;2023-05-19T11:10:05;25.40;51.60
42333;DHT22;27984;51.476;5.702;2023-05-19T11:12:41;24.60;53.10
42333;DHT22;27984;51.476;5.702;2023-05-19T11:15:11;25.30;54.50
42333;DHT22;27984;51.476;5.702;2023-05-19T11:17:39;26.00;52.50
42333;DHT22;27984;51.476;5.702;2023-05-19T11:20:07;26.60;48.60
42333;DHT22;27984;51.476;5.702;2023-05-19T11:22:35;27.10;48.20
42333;DHT22;27984;51.476;5.702;2023-05-19T11:25:02;26.50;49.80
42333;DHT22;27984;51.476;5.702;2023-05-19T11:27:32;27.20;49.50
42333;DHT22;27984;51.476;5.702;2023-05-19T11:30:00;27.00;49.60
42333;DHT22;27984;51.476;5.702;2023-05-19T11:32:30;26.60;48.10
42333;DHT22;27984;51.476;5.702;2023-05-19T11:34:58;26.00;50.30
42333;DHT22;27984;51.476;5.702;2023-05-19T11:37:24;26.40;50.40
42333;DHT22;27984;51.476;5.702;2023-05-19T11:39:50;26.60;49.20
42333;DHT22;27984;51.476;5.702;2023-05-19T11:42:17;27.50;49.20
42333;DHT22;27984;51.476;5.702;2023-05-19T11:44:44;26.70;47.90
42333;DHT22;27984;51.476;5.702;2023-05-19T11:47:14;27.20;47.50
42333;DHT22;27984;51.476;5.702;2023-05-19T11:49:50;26.10;47.50
42333;DHT22;27984;51.476;5.702;2023-05-19T11:52:21;25.40;49.00
42333;DHT22;27984;51.476;5.702;2023-05-19T11:54:47;25.40;50.00
42333;DHT22;27984;51.476;5.702;2023-05-19T11:57:13;26.10;49.90
42333;DHT22;27984;51.476;5.702;2023-05-19T11:59:39;26.30;50.30
42333;DHT22;27984;51.476;5.702;2023-05-19T12:02:18;26.30;49.80
42333;DHT22;27984;51.476;5.702;2023-05-19T12:04:45;26.40;48.00
42333;DHT22;27984;51.476;5.702;2023-05-19T12:07:11;26.20;49.70
42333;DHT22;27984;51.476;5.702;2023-05-19T12:09:38;26.60;48.70
42333;DHT22;27984;51.476;5.702;2023-05-19T12:12:03;26.20;48.20
42333;DHT22;27984;51.476;5.702;2023-05-19T12:14:30;25.60;47.80
42333;DHT22;27984;51.476;5.702;2023-05-19T12:16:56;26.50;48.80
42333;DHT22;27984;51.476;5.702;2023-05-19T12:19:22;26.40;47.80
42333;DHT22;27984;51.476;5.702;2023-05-19T12:21:52;26.60;48.40
42333;DHT22;27984;51.476;5.702;2023-05-19T12:24:19;26.50;48.10
42333;DHT22;27984;51.476;5.702;2023-05-19T12:26:44;26.60;48.50
42333;DHT22;27984;51.476;5.702;2023-05-19T12:29:12;26.80;47.40
42333;DHT22;27984;51.476;5.702;2023-05-19T12:31:38;27.00;47.90
42333;DHT22;27984;51.476;5.702;2023-05-19T12:34:04;27.30;47.30
42333;DHT22;27984;51.476;5.702;2023-05-19T12:36:31;27.50;46.30
42333;DHT22;27984;51.476;5.702;2023-05-19T12:38:56;27.30;46.10
42333;DHT22;27984;51.476;5.702;2023-05-19T12:41:25;26.50;46.90
42333;DHT22;27984;51.476;5.702;2023-05-19T12:43:53;26.10;47.90
42333;DHT22;27984;51.476;5.702;2023-05-19T12:46:18;25.80;47.90
42333;DHT22;27984;51.476;5.702;2023-05-19T12:48:45;26.50;48.10
42333;DHT22;27984;51.476;5.702;2023-05-19T12:51:18;26.80;46.50
42333;DHT22;27984;51.476;5.702;2023-05-19T12:53:44;27.40;45.60
42333;DHT22;27984;51.476;5.702;2023-05-19T12:56:11;27.30;45.70
42333;DHT22;27984;51.476;5.702;2023-05-19T12:58:38;27.10;46.10
42333;DHT22;27984;51.476;5.702;2023-05-19T13:01:05;26.60;46.10
42333;DHT22;27984;51.476;5.702;2023-05-19T13:03:30;26.80;46.40
42333;DHT22;27984;51.476;5.702;2023-05-19T13:05:56;27.40;46.60
42333;DHT22;27984;51.476;5.702;2023-05-19T13:08:23;27.30;45.80
42333;DHT22;27984;51.476;5.702;2023-05-19T13:10:49;27.20;46.30
42333;DHT22;27984;51.476;5.702;2023-05-19T13:13:15;26.70;47.40
42333;DHT22;27984;51.476;5.702;2023-05-19T13:15:45;25.40;47.00
42333;DHT22;27984;51.476;5.702;2023-05-19T13:18:13;25.10;48.50
42333;DHT22;27984;51.476;5.702;2023-05-19T13:20:39;25.00;49.70
42333;DHT22;27984;51.476;5.702;2023-05-19T13:23:05;25.00;49.60
42333;DHT22;27984;51.476;5.702;2023-05-19T13:25:34;25.20;49.30
42333;DHT22;27984;51.476;5.702;2023-05-19T13:28:00;25.10;49.10
42333;DHT22;27984;51.476;5.702;2023-05-19T13:30:28;24.80;49.50
42333;DHT22;27984;51.476;5.702;2023-05-19T13:32:53;24.90;48.80
42333;DHT22;27984;51.476;5.702;2023-05-19T13:35:19;25.70;49.80
42333;DHT22;27984;51.476;5.702;2023-05-19T13:37:44;26.00;48.20
42333;DHT22;27984;51.476;5.702;2023-05-19T13:40:11;26.40;49.20
42333;DHT22;27984;51.476;5.702;2023-05-19T13:42:37;26.40;48.40
42333;DHT22;27984;51.476;5.702;2023-05-19T13:45:03;26.30;47.20
42333;DHT22;27984;51.476;5.702;2023-05-19T13:47:29;26.30;47.20
42333;DHT22;27984;51.476;5.702;2023-05-19T13:49:55;26.00;47.30
42333;DHT22;27984;51.476;5.702;2023-05-19T13:52:21;26.20;46.50
42333;DHT22;27984;51.476;5.702;2023-05-19T13:54:47;26.60;46.40
42333;DHT22;27984;51.476;5.702;2023-05-19T13:57:16;26.40;46.00
42333;DHT22;27984;51.476;5.702;2023-05-19T13:59:42;26.40;45.80
42333;DHT22;27984;51.476;5.702;2023-05-19T14:02:08;25.90;47.10
42333;DHT22;27984;51.476;5.702;2023-05-19T14:04:37;25.40;47.10
42333;DHT22;27984;51.476;5.702;2023-05-19T14:07:04;24.80;47.30
42333;DHT22;27984;51.476;5.702;2023-05-19T14:09:30;25.10;48.20
42333;DHT22;27984;51.476;5.702;2023-05-19T14:11:56;25.30;48.40
42333;DHT22;27984;51.476;5.702;2023-05-19T14:14:21;25.00;48.00
42333;DHT22;27984;51.476;5.702;2023-05-19T14:16:47;25.20;49.50
42333;DHT22;27984;51.476;5.702;2023-05-19T14:19:13;25.10;49.10
42333;DHT22;27984;51.476;5.702;2023-05-19T14:21:38;25.40;48.30
42333;DHT22;27984;51.476;5.702;2023-05-19T14:24:04;25.50;47.70
42333;DHT22;27984;51.476;5.702;2023-05-19T14:26:30;25.90;47.00
42333;DHT22;27984;51.476;5.702;2023-05-19T14:28:55;25.80;47.00
42333;DHT22;27984;51.476;5.702;2023-05-19T14:31:21;25.40;46.60
42333;DHT22;27984;51.476;5.702;2023-05-19T14:33:47;24.90;47.90
42333;DHT22;27984;51.476;5.702;2023-05-19T14:36:12;24.90;50.20
42333;DHT22;27984;51.476;5.702;2023-05-19T14:38:38;24.90;49.10
42333;DHT22;27984;51.476;5.702;2023-05-19T14:41:04;25.00;49.50
42333;DHT22;27984;51.476;5.702;2023-05-19T14:43:30;25.10;49.70
42333;DHT22;27984;51.476;5.702;2023-05-19T14:45:55;24.70;49.70
42333;DHT22;27984;51.476;5.702;2023-05-19T14:48:21;24.60;49.20
42333;DHT22;27984;51.476;5.702;2023-05-19T14:50:47;24.80;49.60
42333;DHT22;27984;51.476;5.702;2023-05-19T14:53:13;25.20;49.30
42333;DHT22;27984;51.476;5.702;2023-05-19T14:55:38;24.90;48.50
42333;DHT22;27984;51.476;5.702;2023-05-19T14:58:04;25.00;48.40
42333;DHT22;27984;51.476;5.702;2023-05-19T15:00:30;24.60;49.30
42333;DHT22;27984;51.476;5.702;2023-05-19T15:02:55;24.40;49.10
42333;DHT22;27984;51.476;5.702;2023-05-19T15:05:21;24.30;48.70
42333;DHT22;27984;51.476;5.702;2023-05-19T15:07:48;24.30;50.00
42333;DHT22;27984;51.476;5.702;2023-05-19T15:10:14;24.20;49.80
42333;DHT22;27984;51.476;5.702;2023-05-19T15:12:41;24.30;49.90
42333;DHT22;27984;51.476;5.702;2023-05-19T15:15:07;24.60;50.60
42333;DHT22;27984;51.476;5.702;2023-05-19T15:17:32;24.40;49.50
42333;DHT22;27984;51.476;5.702;2023-05-19T15:19:58;24.40;48.40
42333;DHT22;27984;51.476;5.702;2023-05-19T15:22:24;23.80;48.00
42333;DHT22;27984;51.476;5.702;2023-05-19T15:24:49;23.50;49.10
42333;DHT22;27984;51.476;5.702;2023-05-19T15:27:15;23.20;49.10
42333;DHT22;27984;51.476;5.702;2023-05-19T15:29:40;22.90;48.60
42333;DHT22;27984;51.476;5.702;2023-05-19T15:32:06;23.00;48.70
42333;DHT22;27984;51.476;5.702;2023-05-19T15:34:32;23.30;49.70
42333;DHT22;27984;51.476;5.702;2023-05-19T15:36:58;23.30;49.70
42333;DHT22;27984;51.476;5.702;2023-05-19T15:39:23;22.90;49.10
42333;DHT22;27984;51.476;5.702;2023-05-19T15:41:49;22.80;50.50
42333;DHT22;27984;51.476;5.702;2023-05-19T15:44:15;22.30;50.50
42333;DHT22;27984;51.476;5.702;2023-05-19T15:46:41;21.90;51.20
42333;DHT22;27984;51.476;5.702;2023-05-19T15:49:06;21.70;51.80
42333;DHT22;27984;51.476;5.702;2023-05-19T15:51:32;21.70;51.40
42333;DHT22;27984;51.476;5.702;2023-05-19T15:53:58;21.60;51.30